createdAt,value
2018-05-23T00:01:31.529Z,5.30
2018-05-23T00:04:33.612Z,5.30
2018-05-23T00:07:35.535Z,5.43
2018-05-23T00:10:37.959Z,5.40
2018-05-23T00:13:39.977Z,5.23
2018-05-23T00:16:41.964Z,5.43
2018-05-23T00:19:43.912Z,5.23
2018-05-23T00:22:45.979Z,5.70
2018-05-23T00:25:48.044Z,5.17
2018-05-23T00:28:50.164Z,5.27
2018-05-23T00:31:52.132Z,5.43
2018-05-23T00:34:54.164Z,5.27
2018-05-23T00:37:57.248Z,5.30
2018-05-23T00:40:59.316Z,5.17
2018-05-23T00:44:01.280Z,5.57
2018-05-23T00:47:03.371Z,5.23
2018-05-23T00:50:05.442Z,6.07
2018-05-23T00:53:07.479Z,5.57
2018-05-23T00:56:09.611Z,5.13
2018-05-23T00:59:11.624Z,5.73
2018-05-23T01:02:13.698Z,6.47
2018-05-23T01:05:15.771Z,5.87
2018-05-23T01:08:17.966Z,5.10
2018-05-23T01:11:20.096Z,5.40
2018-05-23T01:14:22.167Z,5.80
2018-05-23T01:17:26.207Z,5.30
2018-05-23T01:20:28.141Z,5.07
2018-05-23T01:23:30.236Z,4.90
2018-05-23T01:26:32.291Z,5.13
2018-05-23T01:29:34.356Z,5.13
2018-05-23T01:32:36.399Z,5.30
2018-05-23T01:35:38.511Z,5.00
2018-05-23T01:38:40.560Z,4.97
2018-05-23T01:41:42.592Z,4.80
2018-05-23T01:44:44.759Z,5.07
2018-05-23T01:47:46.792Z,5.30
2018-05-23T01:50:48.837Z,5.40
2018-05-23T01:53:50.920Z,5.97
2018-05-23T01:56:53.017Z,6.13
2018-05-23T01:59:56.301Z,5.37
2018-05-23T02:02:59.387Z,5.27
2018-05-23T02:06:01.457Z,5.33
2018-05-23T02:09:04.983Z,6.13
2018-05-23T02:12:07.048Z,5.50
2018-05-23T02:15:09.060Z,5.40
2018-05-23T02:18:11.148Z,6.30
2018-05-23T02:21:13.248Z,5.47
2018-05-23T02:24:15.394Z,5.53
2018-05-23T02:27:17.479Z,6.00
2018-05-23T02:30:19.525Z,5.37
2018-05-23T02:33:21.601Z,4.90
2018-05-23T02:36:26.267Z,4.80
2018-05-23T02:39:28.295Z,5.57
2018-05-23T02:42:30.392Z,5.17
2018-05-23T02:45:32.418Z,5.60
2018-05-23T02:48:35.434Z,5.87
2018-05-23T02:51:37.460Z,5.33
2018-05-23T02:54:39.455Z,5.43
2018-05-23T02:57:41.423Z,5.60
2018-05-23T03:00:44.536Z,5.50
2018-05-23T03:03:46.689Z,5.40
2018-05-23T03:06:48.804Z,5.60
2018-05-23T03:09:50.935Z,5.80
2018-05-23T03:12:52.996Z,5.87
2018-05-23T03:15:56.513Z,6.50
2018-05-23T03:18:58.672Z,6.03
2018-05-23T03:22:01.335Z,5.63
2018-05-23T03:25:03.461Z,6.50
2018-05-23T03:28:05.504Z,6.43
2018-05-23T03:31:07.651Z,5.70
2018-05-23T03:34:09.634Z,5.93
2018-05-23T03:37:11.675Z,7.20
2018-05-23T03:40:13.772Z,6.87
2018-05-23T03:43:15.844Z,7.33
2018-05-23T03:46:17.885Z,6.60
2018-05-23T03:49:19.878Z,7.00
2018-05-23T03:52:21.956Z,6.73
2018-05-23T03:55:24.098Z,6.97
2018-05-23T03:58:27.111Z,7.87
2018-05-23T04:03:48.459Z,7.90
2018-05-23T04:06:59.682Z,7.67
2018-05-23T04:10:01.852Z,7.80
2018-05-23T04:13:03.841Z,8.10
2018-05-23T04:16:05.932Z,8.57
2018-05-23T04:19:08.012Z,8.90
2018-05-23T04:22:10.138Z,8.63
2018-05-23T04:25:12.223Z,8.93
2018-05-23T04:28:14.320Z,8.90
2018-05-23T04:31:16.414Z,8.53
2018-05-23T04:34:18.415Z,8.47
2018-05-23T04:37:20.494Z,7.90
2018-05-23T04:40:23.159Z,8.80
2018-05-23T04:43:25.245Z,9.27
2018-05-23T04:46:28.804Z,8.67
2018-05-23T04:49:32.684Z,9.83
2018-05-23T04:52:34.757Z,9.53
2018-05-23T04:55:36.927Z,9.27
2018-05-23T04:58:38.871Z,8.50
2018-05-23T05:01:40.956Z,9.73
2018-05-23T05:04:43.113Z,8.97
2018-05-23T05:07:45.155Z,9.07
2018-05-23T05:10:47.248Z,9.17
2018-05-23T05:13:49.540Z,10.70
2018-05-23T05:16:51.567Z,10.03
2018-05-23T05:19:53.525Z,10.93
2018-05-23T05:22:55.648Z,11.20
2018-05-23T05:25:58.218Z,11.90
2018-05-23T05:29:00.312Z,12.97
2018-05-23T05:32:02.530Z,12.53
2018-05-23T05:35:04.663Z,13.90
2018-05-23T05:38:06.684Z,15.03
2018-05-23T05:41:08.865Z,14.03
2018-05-23T05:44:10.939Z,14.63
2018-05-23T05:47:13.015Z,15.57
2018-05-23T05:50:15.080Z,14.53
2018-05-23T05:53:17.149Z,14.47
2018-05-23T05:56:19.243Z,15.57
2018-05-23T05:59:21.267Z,14.03
2018-05-23T06:02:25.181Z,16.23
2018-05-23T06:05:27.991Z,15.60
2018-05-23T06:08:30.127Z,17.03
2018-05-23T06:11:32.215Z,15.57
2018-05-23T06:14:34.392Z,14.57
2018-05-23T06:17:36.519Z,15.63
2018-05-23T06:20:38.437Z,16.23
2018-05-23T06:23:41.426Z,16.60
2018-05-23T06:26:43.484Z,15.13
2018-05-23T06:29:45.663Z,14.03
2018-05-23T06:32:47.739Z,15.67
2018-05-23T06:35:49.775Z,16.77
2018-05-23T06:38:51.872Z,15.67
2018-05-23T06:41:53.896Z,17.63
2018-05-23T06:44:55.999Z,17.93
2018-05-23T06:47:58.407Z,17.47
2018-05-23T06:51:00.656Z,16.50
2018-05-23T06:54:03.144Z,18.10
2018-05-23T06:57:07.247Z,17.90
2018-05-23T07:00:09.321Z,17.90
2018-05-23T07:03:11.466Z,17.17
2018-05-23T07:06:13.590Z,18.20
2018-05-23T07:09:15.826Z,17.47
2018-05-23T07:12:17.925Z,17.47
2018-05-23T07:15:21.166Z,17.53
2018-05-23T07:18:23.291Z,18.57
2018-05-23T07:21:25.476Z,16.67
2018-05-23T07:24:27.557Z,18.17
2018-05-23T07:27:29.961Z,17.93
2018-05-23T07:30:32.206Z,19.50
2018-05-23T07:33:34.302Z,20.87
2018-05-23T07:36:36.371Z,21.20
2018-05-23T07:39:38.668Z,20.47
2018-05-23T07:42:40.784Z,20.47
2018-05-23T07:45:50.614Z,19.90
2018-05-23T07:48:52.669Z,21.13
2018-05-23T07:51:55.081Z,21.47
2018-05-23T07:54:57.406Z,21.73
2018-05-23T07:57:59.474Z,22.30
2018-05-23T08:01:01.589Z,21.53
2018-05-23T08:04:03.887Z,23.17
2018-05-23T08:07:06.087Z,22.43
2018-05-23T08:10:08.280Z,20.27
2018-05-23T08:13:10.378Z,21.90
2018-05-23T08:16:12.709Z,22.77
2018-05-23T08:19:14.994Z,23.87
2018-05-23T08:22:17.061Z,22.90
2018-05-23T08:25:19.150Z,23.03
2018-05-23T08:28:21.354Z,22.73
2018-05-23T08:31:23.527Z,22.63
2018-05-23T08:34:27.679Z,23.80
2018-05-23T08:37:29.926Z,23.60
2018-05-23T08:40:31.999Z,21.87
2018-05-23T08:43:33.991Z,22.73
2018-05-23T08:46:36.078Z,26.10
2018-05-23T08:49:38.055Z,25.30
2018-05-23T08:52:45.614Z,25.30
2018-05-23T08:55:47.670Z,24.77
2018-05-23T08:58:49.732Z,25.10
2018-05-23T09:01:51.827Z,25.87
2018-05-23T09:04:55.380Z,24.30
2018-05-23T09:07:57.296Z,24.67
2018-05-23T09:10:59.371Z,24.67
2018-05-23T09:14:01.404Z,25.73
2018-05-23T09:17:07.290Z,25.30
2018-05-23T09:20:09.325Z,23.53
2018-05-23T09:23:11.417Z,24.00
2018-05-23T09:26:13.613Z,24.30
2018-05-23T09:29:15.727Z,25.83
2018-05-23T09:32:17.903Z,23.80
2018-05-23T09:35:19.884Z,23.03
2018-05-23T09:38:21.940Z,24.23
2018-05-23T09:41:24.036Z,23.50
2018-05-23T09:44:27.044Z,23.90
2018-05-23T09:47:29.056Z,22.53
2018-05-23T09:50:32.202Z,23.13
2018-05-23T09:57:01.955Z,24.40
2018-05-23T10:00:04.125Z,23.27
2018-05-23T10:03:06.300Z,21.67
2018-05-23T10:06:08.461Z,24.23
2018-05-23T10:09:10.532Z,20.37
2018-05-23T10:12:12.724Z,22.43
2018-05-23T10:15:14.884Z,20.70
2018-05-23T10:18:16.990Z,21.67
2018-05-23T10:21:19.136Z,20.97
2018-05-23T10:24:21.344Z,21.90
2018-05-23T10:27:23.429Z,20.33
2018-05-23T10:30:26.709Z,18.97
2018-05-23T10:33:28.855Z,20.20
2018-05-23T10:36:30.867Z,20.17
2018-05-23T10:39:33.161Z,18.13
2018-05-23T10:42:35.350Z,18.67
2018-05-23T10:45:37.414Z,15.10
2018-05-23T10:48:39.777Z,16.67
2018-05-23T10:51:41.821Z,15.53
2018-05-23T10:54:43.840Z,15.73
2018-05-23T10:57:46.026Z,15.80
2018-05-23T11:00:48.172Z,15.07
2018-05-23T11:03:50.303Z,16.67
2018-05-23T11:06:52.421Z,15.97
2018-05-23T11:09:54.452Z,18.20
2018-05-23T11:12:56.626Z,17.30
2018-05-23T11:15:58.788Z,16.90
2018-05-23T11:19:00.952Z,19.00
2018-05-23T11:22:03.069Z,19.07
2018-05-23T11:25:05.301Z,19.57
2018-05-23T11:28:07.429Z,17.70
2018-05-23T11:31:09.661Z,17.73
2018-05-23T11:34:11.784Z,20.23
2018-05-23T11:37:13.899Z,17.63
2018-05-23T11:40:15.947Z,18.20
2018-05-23T11:43:18.225Z,17.13
2018-05-23T11:46:20.304Z,18.07
2018-05-23T11:49:22.368Z,19.57
2018-05-23T11:52:24.625Z,18.67
2018-05-23T11:55:26.713Z,18.20
2018-05-23T11:58:29.367Z,19.73
2018-05-23T12:01:31.454Z,19.07
2018-05-23T12:04:33.533Z,16.97
2018-05-23T12:07:35.547Z,17.73
2018-05-23T12:10:37.726Z,16.53
2018-05-23T12:13:39.844Z,19.67
2018-05-23T12:16:41.899Z,17.20
2018-05-23T12:19:44.217Z,16.90
2018-05-23T12:22:46.292Z,16.87
2018-05-23T12:25:48.252Z,16.87
2018-05-23T12:28:50.391Z,14.33
2018-05-23T12:31:52.449Z,14.77
2018-05-23T12:34:56.455Z,14.80
2018-05-23T12:37:58.588Z,13.20
2018-05-23T12:41:00.702Z,14.40
2018-05-23T12:44:03.804Z,13.03
2018-05-23T12:47:06.012Z,16.93
2018-05-23T12:50:08.025Z,18.20
2018-05-23T12:53:11.108Z,15.27
2018-05-23T12:56:13.183Z,14.30
2018-05-23T12:59:15.288Z,14.93
2018-05-23T13:02:17.405Z,15.80
2018-05-23T13:05:19.499Z,14.73
2018-05-23T13:08:21.465Z,15.50
2018-05-23T13:11:23.513Z,17.43
2018-05-23T13:14:25.619Z,14.73
2018-05-23T13:17:27.960Z,14.37
2018-05-23T13:20:30.016Z,17.20
2018-05-23T13:23:32.784Z,18.00
2018-05-23T13:26:34.799Z,18.50
2018-05-23T13:29:36.969Z,16.50
2018-05-23T13:32:39.018Z,16.97
2018-05-23T13:35:41.075Z,14.90
2018-05-23T13:38:44.233Z,14.77
2018-05-23T13:41:46.357Z,15.57
2018-05-23T13:44:48.420Z,15.63
2018-05-23T13:47:50.505Z,14.27
2018-05-23T13:50:52.603Z,14.33
2018-05-23T13:53:56.807Z,14.00
2018-05-23T13:56:58.875Z,13.13
2018-05-23T14:00:01.042Z,12.50
2018-05-23T14:03:03.101Z,14.87
2018-05-23T14:06:05.174Z,17.10
2018-05-23T14:09:07.459Z,12.10
2018-05-23T14:12:09.508Z,16.20
2018-05-23T14:15:11.564Z,13.57
2018-05-23T14:18:13.643Z,12.47
2018-05-23T14:21:15.751Z,13.17
2018-05-23T14:24:17.898Z,15.40
2018-05-23T14:27:20.046Z,14.90
2018-05-23T14:30:23.134Z,13.20
2018-05-23T14:33:25.248Z,15.47
2018-05-23T14:36:27.991Z,15.03
2018-05-23T14:39:30.059Z,15.43
2018-05-23T14:42:32.315Z,13.87
2018-05-23T14:45:34.247Z,12.67
2018-05-23T14:48:36.444Z,13.00
2018-05-23T14:51:38.616Z,10.90
2018-05-23T14:54:40.623Z,11.23
2018-05-23T14:57:42.670Z,12.50
2018-05-23T15:00:44.865Z,14.63
2018-05-23T15:03:46.907Z,11.87
2018-05-23T15:06:48.891Z,14.67
2018-05-23T15:09:50.966Z,12.17
2018-05-23T15:12:53.066Z,12.73
2018-05-23T15:15:55.420Z,11.27
2018-05-23T15:18:58.003Z,12.57
2018-05-23T15:22:00.046Z,10.97
2018-05-23T15:25:02.099Z,12.83
2018-05-23T15:28:04.236Z,13.17
2018-05-23T15:31:06.258Z,13.97
2018-05-23T15:34:08.330Z,12.13
2018-05-23T15:37:10.368Z,12.27
2018-05-23T15:40:12.349Z,10.50
2018-05-23T15:43:14.423Z,10.80
2018-05-23T15:46:16.435Z,11.67
2018-05-23T15:49:18.465Z,10.87
2018-05-23T15:52:20.629Z,10.23
2018-05-23T15:55:22.686Z,10.50
2018-05-23T15:58:24.755Z,10.73
2018-05-23T16:01:27.501Z,11.40
2018-05-23T16:04:30.564Z,11.37
2018-05-23T16:07:32.685Z,11.53
2018-05-23T16:10:34.931Z,10.17
2018-05-23T16:13:36.959Z,9.83
2018-05-23T16:16:39.049Z,10.73
2018-05-23T16:19:41.120Z,9.33
2018-05-23T16:22:43.227Z,9.83
2018-05-23T16:25:45.239Z,9.70
2018-05-23T16:28:47.324Z,8.63
2018-05-23T16:31:49.387Z,8.23
2018-05-23T16:34:51.575Z,9.30
2018-05-23T16:37:53.600Z,8.40
2018-05-23T16:40:55.619Z,9.67
2018-05-23T16:43:58.439Z,9.03
2018-05-23T16:47:00.540Z,9.50
2018-05-23T16:50:04.540Z,9.53
2018-05-23T16:53:06.624Z,9.20
2018-05-23T16:56:08.702Z,8.13
2018-05-23T16:59:10.748Z,7.77
2018-05-23T17:02:12.829Z,7.50
2018-05-23T17:05:14.915Z,7.63
2018-05-23T17:08:16.947Z,7.43
2018-05-23T17:11:19.036Z,7.57
2018-05-23T17:14:21.311Z,6.77
2018-05-23T17:17:23.496Z,6.70
2018-05-23T17:20:25.670Z,6.43
2018-05-23T17:23:28.871Z,6.50
2018-05-23T17:26:31.024Z,5.30
2018-05-23T17:29:33.077Z,4.60
2018-05-23T17:32:35.430Z,4.47
2018-05-23T17:35:37.508Z,4.43
2018-05-23T17:38:39.592Z,4.00
2018-05-23T17:41:41.668Z,3.57
2018-05-23T17:44:43.852Z,2.50
2018-05-23T17:47:46.085Z,2.60
2018-05-23T17:50:48.174Z,2.93
2018-05-23T17:53:50.452Z,2.60
2018-05-23T17:56:52.600Z,3.87
2018-05-23T17:59:54.803Z,3.23
2018-05-23T18:02:56.944Z,3.60
2018-05-23T18:06:00.207Z,3.90
2018-05-23T18:09:02.276Z,4.00
2018-05-23T18:12:04.506Z,4.07
2018-05-23T18:15:06.588Z,3.60
2018-05-23T18:18:08.638Z,3.53
2018-05-23T18:21:11.012Z,3.77
2018-05-23T18:24:13.084Z,3.93
2018-05-23T18:27:15.239Z,4.60
2018-05-23T18:30:17.345Z,4.40
2018-05-23T18:33:19.487Z,4.07
2018-05-23T18:36:21.555Z,4.50
2018-05-23T18:39:23.628Z,3.57
2018-05-23T18:42:25.680Z,4.37
2018-05-23T18:45:28.874Z,4.20
2018-05-23T18:48:30.936Z,4.73
2018-05-23T18:51:33.115Z,5.30
2018-05-23T18:54:35.265Z,5.30
2018-05-23T18:57:37.173Z,4.47
2018-05-23T19:00:39.249Z,4.20
2018-05-23T19:03:42.755Z,4.40
2018-05-23T19:06:44.810Z,4.33
2018-05-23T19:09:46.903Z,5.00
2018-05-23T19:12:48.923Z,4.10
2018-05-23T19:15:51.283Z,4.87
2018-05-23T19:18:53.556Z,4.40
2018-05-23T19:21:55.680Z,4.30
2018-05-23T19:24:57.729Z,5.43
2018-05-23T19:27:59.772Z,4.80
2018-05-23T19:31:02.781Z,4.93
2018-05-23T19:34:05.638Z,4.73
2018-05-23T19:37:07.627Z,4.90
2018-05-23T19:40:09.676Z,4.90
2018-05-23T19:43:11.784Z,4.67
2018-05-23T19:46:13.888Z,4.60
2018-05-23T19:49:15.933Z,4.60
2018-05-23T19:52:18.147Z,4.80
2018-05-23T19:55:20.263Z,4.93
2018-05-23T19:58:22.313Z,4.47
2018-05-23T20:01:24.412Z,4.90
2018-05-23T20:04:32.716Z,5.10
2018-05-23T20:07:34.759Z,4.77
2018-05-23T20:10:36.863Z,5.33
2018-05-23T20:13:39.526Z,4.30
2018-05-23T20:16:41.584Z,5.20
2018-05-23T20:19:43.668Z,5.40
2018-05-23T20:22:45.724Z,6.07
2018-05-23T20:25:47.793Z,5.70
2018-05-23T20:28:49.879Z,5.63
2018-05-23T20:31:52.940Z,5.70
2018-05-23T20:34:54.999Z,5.00
2018-05-23T20:37:57.143Z,5.77
2018-05-23T20:40:59.811Z,6.17
2018-05-23T20:44:01.963Z,6.20
2018-05-23T20:47:04.046Z,5.43
2018-05-23T20:50:06.168Z,5.87
2018-05-23T20:53:08.415Z,6.10
2018-05-23T20:56:10.443Z,5.80
2018-05-23T20:59:12.544Z,6.23
2018-05-23T21:02:14.652Z,5.70
2018-05-23T21:05:17.945Z,6.10
2018-05-23T21:08:19.790Z,5.97
2018-05-23T21:11:22.005Z,6.40
2018-05-23T21:14:23.940Z,5.70
2018-05-23T21:17:25.997Z,5.50
2018-05-23T21:20:28.099Z,6.57
2018-05-23T21:23:30.885Z,6.57
2018-05-23T21:26:32.989Z,6.50
2018-05-23T21:29:35.008Z,6.13
2018-05-23T21:32:37.055Z,6.43
2018-05-23T21:35:39.189Z,6.20
2018-05-23T21:38:41.216Z,6.67
2018-05-23T21:41:43.292Z,6.90
2018-05-23T21:44:45.315Z,6.47
2018-05-23T21:47:47.412Z,6.37
2018-05-23T21:50:50.435Z,6.30
2018-05-23T21:53:52.599Z,6.40
2018-05-23T21:56:54.659Z,6.53
2018-05-23T21:59:56.714Z,6.40
2018-05-23T22:02:58.697Z,6.77
2018-05-23T22:06:01.873Z,7.13
2018-05-23T22:09:04.825Z,7.30
2018-05-23T22:12:06.920Z,7.40
2018-05-23T22:15:08.972Z,7.00
2018-05-23T22:18:11.053Z,7.47
2018-05-23T22:21:13.031Z,6.53
2018-05-23T22:24:15.070Z,7.27
2018-05-23T22:27:17.108Z,7.07
2018-05-23T22:30:19.144Z,7.90
2018-05-23T22:33:21.204Z,8.37
2018-05-23T22:36:23.269Z,8.00
2018-05-23T22:39:25.380Z,8.00
2018-05-23T22:42:27.491Z,7.73
2018-05-23T22:45:30.520Z,7.23
2018-05-23T22:48:32.555Z,7.33
2018-05-23T22:51:34.556Z,8.13
2018-05-23T22:54:36.468Z,8.03
2018-05-23T22:57:38.473Z,7.73
2018-05-23T23:00:40.461Z,8.37
2018-05-23T23:03:42.509Z,8.77
2018-05-23T23:06:44.595Z,8.30
2018-05-23T23:09:46.647Z,8.87
2018-05-23T23:12:48.716Z,9.23
2018-05-23T23:15:51.024Z,9.17
2018-05-23T23:18:53.141Z,8.60
2018-05-23T23:21:55.108Z,9.30
2018-05-23T23:24:57.075Z,7.30
2018-05-23T23:28:01.383Z,8.33
2018-05-23T23:31:03.382Z,8.80
2018-05-23T23:34:05.460Z,8.80
2018-05-23T23:37:07.448Z,8.80
2018-05-23T23:40:09.478Z,8.70
2018-05-23T23:43:11.581Z,8.30
2018-05-23T23:46:13.610Z,8.33
2018-05-23T23:49:15.590Z,8.03
2018-05-23T23:52:17.664Z,8.17
2018-05-23T23:55:19.555Z,8.47
2018-05-23T23:58:21.579Z,8.60
